sensor_id;sensor_type;location;lat;lon;timestamp;P1;durP1;ratioP1;P2;durP2;ratioP2
13985;SDS011;7067;51.832;8.296;2024-01-30T00:02:11;25.08;;;18.50;;
13985;SDS011;7067;51.832;8.296;2024-01-30T00:04:37;28.52;;;18.77;;
13985;SDS011;7067;51.832;8.296;2024-01-30T00:07:02;25.23;;;17.90;;
13985;SDS011;7067;51.832;8.296;2024-01-30T00:09:28;24.07;;;18.33;;
13985;SDS011;7067;51.832;8.296;2024-01-30T00:11:53;27.33;;;18.95;;
13985;SDS011;7067;51.832;8.296;2024-01-30T00:14:19;26.75;;;16.67;;
13985;SDS011;7067;51.832;8.296;2024-01-30T00:16:44;27.30;;;17.05;;
13985;SDS011;7067;51.832;8.296;2024-01-30T00:19:10;28.13;;;18.47;;
13985;SDS011;7067;51.832;8.296;2024-01-30T00:21:35;25.43;;;18.20;;
13985;SDS011;7067;51.832;8.296;2024-01-30T00:24:01;21.70;;;16.70;;
13985;SDS011;7067;51.832;8.296;2024-01-30T00:26:26;25.47;;;17.63;;
13985;SDS011;7067;51.832;8.296;2024-01-30T00:28:51;19.77;;;15.90;;
13985;SDS011;7067;51.832;8.296;2024-01-30T00:31:17;22.57;;;16.67;;
13985;SDS011;7067;51.832;8.296;2024-01-30T00:33:43;20.20;;;16.52;;
13985;SDS011;7067;51.832;8.296;2024-01-30T00:36:09;18.87;;;15.67;;
13985;SDS011;7067;51.832;8.296;2024-01-30T00:38:34;21.73;;;17.00;;
13985;SDS011;7067;51.832;8.296;2024-01-30T00:41:00;21.97;;;15.37;;
13985;SDS011;7067;51.832;8.296;2024-01-30T00:43:27;22.17;;;17.17;;
13985;SDS011;7067;51.832;8.296;2024-01-30T00:45:52;21.97;;;17.03;;
13985;SDS011;7067;51.832;8.296;2024-01-30T00:48:18;17.10;;;15.15;;
13985;SDS011;7067;51.832;8.296;2024-01-30T00:50:43;20.02;;;14.98;;
13985;SDS011;7067;51.832;8.296;2024-01-30T00:53:09;21.73;;;16.00;;
13985;SDS011;7067;51.832;8.296;2024-01-30T00:55:34;20.60;;;16.25;;
13985;SDS011;7067;51.832;8.296;2024-01-30T00:58:00;21.97;;;16.57;;
13985;SDS011;7067;51.832;8.296;2024-01-30T01:00:25;20.30;;;15.83;;
13985;SDS011;7067;51.832;8.296;2024-01-30T01:02:54;22.73;;;16.33;;
13985;SDS011;7067;51.832;8.296;2024-01-30T01:05:20;21.65;;;15.68;;
13985;SDS011;7067;51.832;8.296;2024-01-30T01:07:45;19.90;;;16.10;;
13985;SDS011;7067;51.832;8.296;2024-01-30T01:10:12;21.27;;;15.87;;
13985;SDS011;7067;51.832;8.296;2024-01-30T01:12:38;22.80;;;16.53;;
13985;SDS011;7067;51.832;8.296;2024-01-30T01:15:04;18.77;;;15.53;;
13985;SDS011;7067;51.832;8.296;2024-01-30T01:17:30;23.00;;;16.87;;
13985;SDS011;7067;51.832;8.296;2024-01-30T01:19:56;22.37;;;15.80;;
13985;SDS011;7067;51.832;8.296;2024-01-30T01:22:22;18.50;;;15.60;;
13985;SDS011;7067;51.832;8.296;2024-01-30T01:24:47;19.92;;;15.80;;
13985;SDS011;7067;51.832;8.296;2024-01-30T01:27:13;21.10;;;15.37;;
13985;SDS011;7067;51.832;8.296;2024-01-30T01:29:38;18.03;;;15.73;;
13985;SDS011;7067;51.832;8.296;2024-01-30T01:32:04;21.33;;;15.53;;
13985;SDS011;7067;51.832;8.296;2024-01-30T01:34:29;21.27;;;15.63;;
13985;SDS011;7067;51.832;8.296;2024-01-30T01:36:55;23.03;;;15.70;;
13985;SDS011;7067;51.832;8.296;2024-01-30T01:39:20;18.63;;;16.27;;
13985;SDS011;7067;51.832;8.296;2024-01-30T01:41:46;19.53;;;17.47;;
13985;SDS011;7067;51.832;8.296;2024-01-30T01:44:12;17.60;;;15.73;;
13985;SDS011;7067;51.832;8.296;2024-01-30T01:46:38;20.45;;;15.93;;
13985;SDS011;7067;51.832;8.296;2024-01-30T01:49:04;18.07;;;16.13;;
13985;SDS011;7067;51.832;8.296;2024-01-30T01:51:30;21.77;;;16.03;;
13985;SDS011;7067;51.832;8.296;2024-01-30T01:53:57;18.10;;;15.73;;
13985;SDS011;7067;51.832;8.296;2024-01-30T01:56:23;18.37;;;15.20;;
13985;SDS011;7067;51.832;8.296;2024-01-30T01:58:49;22.47;;;16.27;;
13985;SDS011;7067;51.832;8.296;2024-01-30T02:01:15;19.67;;;16.50;;
13985;SDS011;7067;51.832;8.296;2024-01-30T02:03:41;16.97;;;15.17;;
13985;SDS011;7067;51.832;8.296;2024-01-30T02:06:07;17.63;;;15.63;;
13985;SDS011;7067;51.832;8.296;2024-01-30T02:08:32;18.27;;;16.20;;
13985;SDS011;7067;51.832;8.296;2024-01-30T02:10:58;18.47;;;15.37;;
13985;SDS011;7067;51.832;8.296;2024-01-30T02:13:23;20.97;;;16.43;;
13985;SDS011;7067;51.832;8.296;2024-01-30T02:15:52;21.67;;;15.20;;
13985;SDS011;7067;51.832;8.296;2024-01-30T02:18:18;19.53;;;15.50;;
13985;SDS011;7067;51.832;8.296;2024-01-30T02:20:44;19.80;;;16.00;;
13985;SDS011;7067;51.832;8.296;2024-01-30T02:23:10;17.83;;;15.93;;
13985;SDS011;7067;51.832;8.296;2024-01-30T02:25:38;17.50;;;15.60;;
13985;SDS011;7067;51.832;8.296;2024-01-30T02:28:09;17.67;;;15.50;;
13985;SDS011;7067;51.832;8.296;2024-01-30T02:30:42;20.43;;;16.50;;
13985;SDS011;7067;51.832;8.296;2024-01-30T02:33:08;17.35;;;15.68;;
13985;SDS011;7067;51.832;8.296;2024-01-30T02:35:33;19.37;;;16.50;;
13985;SDS011;7067;51.832;8.296;2024-01-30T02:37:59;17.57;;;15.87;;
13985;SDS011;7067;51.832;8.296;2024-01-30T02:40:24;16.70;;;15.00;;
13985;SDS011;7067;51.832;8.296;2024-01-30T02:42:50;21.30;;;16.23;;
13985;SDS011;7067;51.832;8.296;2024-01-30T02:45:15;21.17;;;15.97;;
13985;SDS011;7067;51.832;8.296;2024-01-30T02:47:41;20.57;;;15.87;;
13985;SDS011;7067;51.832;8.296;2024-01-30T02:50:06;18.83;;;16.07;;
13985;SDS011;7067;51.832;8.296;2024-01-30T02:52:32;18.30;;;15.40;;
13985;SDS011;7067;51.832;8.296;2024-01-30T02:54:58;17.33;;;14.47;;
13985;SDS011;7067;51.832;8.296;2024-01-30T02:57:23;18.60;;;15.77;;
13985;SDS011;7067;51.832;8.296;2024-01-30T02:59:48;18.13;;;14.87;;
13985;SDS011;7067;51.832;8.296;2024-01-30T03:02:14;18.00;;;15.00;;
13985;SDS011;7067;51.832;8.296;2024-01-30T03:04:42;17.77;;;15.77;;
13985;SDS011;7067;51.832;8.296;2024-01-30T03:07:07;17.37;;;15.57;;
13985;SDS011;7067;51.832;8.296;2024-01-30T03:09:33;16.80;;;15.07;;
13985;SDS011;7067;51.832;8.296;2024-01-30T03:11:59;16.27;;;14.57;;
13985;SDS011;7067;51.832;8.296;2024-01-30T03:14:24;17.43;;;15.50;;
13985;SDS011;7067;51.832;8.296;2024-01-30T03:16:50;17.20;;;15.37;;
13985;SDS011;7067;51.832;8.296;2024-01-30T03:19:15;20.60;;;16.03;;
13985;SDS011;7067;51.832;8.296;2024-01-30T03:21:40;18.40;;;15.80;;
13985;SDS011;7067;51.832;8.296;2024-01-30T03:24:06;17.73;;;15.43;;
13985;SDS011;7067;51.832;8.296;2024-01-30T03:26:31;18.27;;;15.13;;
13985;SDS011;7067;51.832;8.296;2024-01-30T03:28:56;16.60;;;15.03;;
13985;SDS011;7067;51.832;8.296;2024-01-30T03:31:22;18.50;;;15.63;;
13985;SDS011;7067;51.832;8.296;2024-01-30T03:33:47;17.05;;;15.23;;
13985;SDS011;7067;51.832;8.296;2024-01-30T03:36:13;18.00;;;15.50;;
13985;SDS011;7067;51.832;8.296;2024-01-30T03:38:40;17.67;;;14.85;;
13985;SDS011;7067;51.832;8.296;2024-01-30T03:41:07;17.63;;;15.83;;
13985;SDS011;7067;51.832;8.296;2024-01-30T03:43:33;18.73;;;16.87;;
13985;SDS011;7067;51.832;8.296;2024-01-30T03:45:59;19.17;;;14.88;;
13985;SDS011;7067;51.832;8.296;2024-01-30T03:48:24;16.10;;;14.48;;
13985;SDS011;7067;51.832;8.296;2024-01-30T03:50:50;15.70;;;13.93;;
13985;SDS011;7067;51.832;8.296;2024-01-30T03:53:16;18.20;;;16.30;;
13985;SDS011;7067;51.832;8.296;2024-01-30T03:55:42;18.17;;;15.53;;
13985;SDS011;7067;51.832;8.296;2024-01-30T03:58:07;18.15;;;14.60;;
13985;SDS011;7067;51.832;8.296;2024-01-30T04:00:32;20.45;;;15.10;;
13985;SDS011;7067;51.832;8.296;2024-01-30T04:02:58;15.75;;;14.15;;
13985;SDS011;7067;51.832;8.296;2024-01-30T04:05:23;19.10;;;15.45;;
13985;SDS011;7067;51.832;8.296;2024-01-30T04:07:48;16.35;;;14.75;;
13985;SDS011;7067;51.832;8.296;2024-01-30T04:10:14;17.15;;;15.27;;
13985;SDS011;7067;51.832;8.296;2024-01-30T04:12:39;16.95;;;15.15;;
13985;SDS011;7067;51.832;8.296;2024-01-30T04:15:05;16.98;;;14.63;;
13985;SDS011;7067;51.832;8.296;2024-01-30T04:17:30;18.10;;;15.67;;
13985;SDS011;7067;51.832;8.296;2024-01-30T04:19:55;21.23;;;15.77;;
13985;SDS011;7067;51.832;8.296;2024-01-30T04:22:21;19.25;;;15.63;;
13985;SDS011;7067;51.832;8.296;2024-01-30T04:24:46;18.73;;;16.15;;
13985;SDS011;7067;51.832;8.296;2024-01-30T04:27:12;18.83;;;16.90;;
13985;SDS011;7067;51.832;8.296;2024-01-30T04:29:37;17.53;;;15.53;;
13985;SDS011;7067;51.832;8.296;2024-01-30T04:32:02;17.38;;;14.80;;
13985;SDS011;7067;51.832;8.296;2024-01-30T04:34:28;20.97;;;15.90;;
13985;SDS011;7067;51.832;8.296;2024-01-30T04:36:53;17.40;;;15.07;;
13985;SDS011;7067;51.832;8.296;2024-01-30T04:39:19;20.57;;;16.37;;
13985;SDS011;7067;51.832;8.296;2024-01-30T04:41:44;19.10;;;15.43;;
13985;SDS011;7067;51.832;8.296;2024-01-30T04:44:09;18.35;;;16.30;;
13985;SDS011;7067;51.832;8.296;2024-01-30T04:46:35;16.25;;;14.40;;
13985;SDS011;7067;51.832;8.296;2024-01-30T04:49:00;17.58;;;15.45;;
13985;SDS011;7067;51.832;8.296;2024-01-30T04:51:26;17.98;;;15.45;;
13985;SDS011;7067;51.832;8.296;2024-01-30T04:53:51;18.52;;;14.63;;
13985;SDS011;7067;51.832;8.296;2024-01-30T04:56:16;17.08;;;15.10;;
13985;SDS011;7067;51.832;8.296;2024-01-30T04:58:42;16.93;;;15.23;;
13985;SDS011;7067;51.832;8.296;2024-01-30T05:01:07;21.75;;;16.10;;
13985;SDS011;7067;51.832;8.296;2024-01-30T05:03:33;16.40;;;14.83;;
13985;SDS011;7067;51.832;8.296;2024-01-30T05:05:59;17.90;;;14.95;;
13985;SDS011;7067;51.832;8.296;2024-01-30T05:08:25;18.90;;;14.68;;
13985;SDS011;7067;51.832;8.296;2024-01-30T05:10:50;19.07;;;16.10;;
13985;SDS011;7067;51.832;8.296;2024-01-30T05:13:15;19.80;;;15.97;;
13985;SDS011;7067;51.832;8.296;2024-01-30T05:15:41;16.45;;;14.43;;
13985;SDS011;7067;51.832;8.296;2024-01-30T05:18:06;17.17;;;15.17;;
13985;SDS011;7067;51.832;8.296;2024-01-30T05:20:31;17.30;;;14.57;;
13985;SDS011;7067;51.832;8.296;2024-01-30T05:22:57;17.17;;;14.50;;
13985;SDS011;7067;51.832;8.296;2024-01-30T05:25:22;16.07;;;14.40;;
13985;SDS011;7067;51.832;8.296;2024-01-30T05:27:48;17.17;;;15.38;;
13985;SDS011;7067;51.832;8.296;2024-01-30T05:30:14;17.27;;;14.90;;
13985;SDS011;7067;51.832;8.296;2024-01-30T05:32:40;17.23;;;15.30;;
13985;SDS011;7067;51.832;8.296;2024-01-30T05:35:06;19.80;;;15.00;;
13985;SDS011;7067;51.832;8.296;2024-01-30T05:37:32;18.37;;;15.23;;
13985;SDS011;7067;51.832;8.296;2024-01-30T05:39:58;17.20;;;15.40;;
13985;SDS011;7067;51.832;8.296;2024-01-30T05:42:23;15.90;;;14.20;;
13985;SDS011;7067;51.832;8.296;2024-01-30T05:44:49;17.65;;;15.55;;
13985;SDS011;7067;51.832;8.296;2024-01-30T05:47:15;18.08;;;15.70;;
13985;SDS011;7067;51.832;8.296;2024-01-30T05:49:40;19.05;;;15.13;;
13985;SDS011;7067;51.832;8.296;2024-01-30T05:52:06;21.20;;;16.80;;
13985;SDS011;7067;51.832;8.296;2024-01-30T05:54:31;19.00;;;16.98;;
13985;SDS011;7067;51.832;8.296;2024-01-30T05:56:57;18.58;;;16.38;;
13985;SDS011;7067;51.832;8.296;2024-01-30T05:59:22;24.63;;;17.80;;
13985;SDS011;7067;51.832;8.296;2024-01-30T06:01:47;27.57;;;17.33;;
13985;SDS011;7067;51.832;8.296;2024-01-30T06:04:13;18.47;;;16.53;;
13985;SDS011;7067;51.832;8.296;2024-01-30T06:06:39;18.38;;;16.23;;
13985;SDS011;7067;51.832;8.296;2024-01-30T06:09:05;18.47;;;16.27;;
13985;SDS011;7067;51.832;8.296;2024-01-30T06:11:30;19.37;;;16.50;;
13985;SDS011;7067;51.832;8.296;2024-01-30T06:13:56;18.83;;;16.63;;
13985;SDS011;7067;51.832;8.296;2024-01-30T06:16:21;17.50;;;15.67;;
13985;SDS011;7067;51.832;8.296;2024-01-30T06:18:47;20.67;;;16.77;;
13985;SDS011;7067;51.832;8.296;2024-01-30T06:21:13;16.45;;;14.77;;
13985;SDS011;7067;51.832;8.296;2024-01-30T06:23:38;17.13;;;15.40;;
13985;SDS011;7067;51.832;8.296;2024-01-30T06:26:04;18.70;;;15.33;;
13985;SDS011;7067;51.832;8.296;2024-01-30T06:28:31;20.40;;;16.13;;
13985;SDS011;7067;51.832;8.296;2024-01-30T06:30:56;18.90;;;15.55;;
13985;SDS011;7067;51.832;8.296;2024-01-30T06:33:22;17.20;;;15.45;;
13985;SDS011;7067;51.832;8.296;2024-01-30T06:35:47;18.83;;;15.98;;
13985;SDS011;7067;51.832;8.296;2024-01-30T06:38:13;20.38;;;15.77;;
13985;SDS011;7067;51.832;8.296;2024-01-30T06:40:40;17.45;;;15.63;;
13985;SDS011;7067;51.832;8.296;2024-01-30T06:43:06;24.50;;;16.50;;
13985;SDS011;7067;51.832;8.296;2024-01-30T06:45:32;20.43;;;15.00;;
13985;SDS011;7067;51.832;8.296;2024-01-30T06:47:59;16.45;;;14.80;;
13985;SDS011;7067;51.832;8.296;2024-01-30T06:50:24;19.35;;;14.55;;
13985;SDS011;7067;51.832;8.296;2024-01-30T06:52:50;17.47;;;15.67;;
13985;SDS011;7067;51.832;8.296;2024-01-30T06:55:16;18.88;;;16.83;;
13985;SDS011;7067;51.832;8.296;2024-01-30T06:57:41;20.00;;;17.90;;
13985;SDS011;7067;51.832;8.296;2024-01-30T07:00:07;22.77;;;17.60;;
13985;SDS011;7067;51.832;8.296;2024-01-30T07:02:32;18.05;;;16.15;;
13985;SDS011;7067;51.832;8.296;2024-01-30T07:04:58;18.17;;;16.05;;
13985;SDS011;7067;51.832;8.296;2024-01-30T07:07:23;17.60;;;15.75;;
13985;SDS011;7067;51.832;8.296;2024-01-30T07:09:49;19.35;;;17.08;;
13985;SDS011;7067;51.832;8.296;2024-01-30T07:12:17;21.83;;;16.85;;
13985;SDS011;7067;51.832;8.296;2024-01-30T07:14:42;18.25;;;16.35;;
13985;SDS011;7067;51.832;8.296;2024-01-30T07:17:08;18.60;;;15.60;;
13985;SDS011;7067;51.832;8.296;2024-01-30T07:19:33;21.27;;;16.40;;
13985;SDS011;7067;51.832;8.296;2024-01-30T07:21:59;17.42;;;15.73;;
13985;SDS011;7067;51.832;8.296;2024-01-30T07:24:25;17.27;;;15.37;;
13985;SDS011;7067;51.832;8.296;2024-01-30T07:26:51;20.83;;;16.63;;
13985;SDS011;7067;51.832;8.296;2024-01-30T07:29:16;19.02;;;16.83;;
13985;SDS011;7067;51.832;8.296;2024-01-30T07:31:41;20.77;;;17.03;;
13985;SDS011;7067;51.832;8.296;2024-01-30T07:34:07;21.95;;;17.35;;
13985;SDS011;7067;51.832;8.296;2024-01-30T07:36:33;19.08;;;17.02;;
13985;SDS011;7067;51.832;8.296;2024-01-30T07:38:59;22.77;;;18.07;;
13985;SDS011;7067;51.832;8.296;2024-01-30T07:41:24;20.13;;;17.60;;
13985;SDS011;7067;51.832;8.296;2024-01-30T07:43:50;18.40;;;16.58;;
13985;SDS011;7067;51.832;8.296;2024-01-30T07:46:15;19.52;;;17.52;;
13985;SDS011;7067;51.832;8.296;2024-01-30T07:48:41;19.15;;;17.10;;
13985;SDS011;7067;51.832;8.296;2024-01-30T07:51:06;19.42;;;16.95;;
13985;SDS011;7067;51.832;8.296;2024-01-30T07:53:32;19.67;;;17.02;;
13985;SDS011;7067;51.832;8.296;2024-01-30T07:55:57;19.42;;;16.80;;
13985;SDS011;7067;51.832;8.296;2024-01-30T07:58:22;22.23;;;17.48;;
13985;SDS011;7067;51.832;8.296;2024-01-30T08:00:48;22.15;;;17.85;;
13985;SDS011;7067;51.832;8.296;2024-01-30T08:03:14;21.48;;;18.80;;
13985;SDS011;7067;51.832;8.296;2024-01-30T08:05:41;21.92;;;18.73;;
13985;SDS011;7067;51.832;8.296;2024-01-30T08:08:06;19.95;;;17.80;;
13985;SDS011;7067;51.832;8.296;2024-01-30T08:10:32;18.85;;;16.90;;
13985;SDS011;7067;51.832;8.296;2024-01-30T08:12:57;18.00;;;16.10;;
13985;SDS011;7067;51.832;8.296;2024-01-30T08:15:23;18.38;;;16.50;;
13985;SDS011;7067;51.832;8.296;2024-01-30T08:17:48;18.10;;;15.80;;
13985;SDS011;7067;51.832;8.296;2024-01-30T08:20:13;17.45;;;15.68;;
13985;SDS011;7067;51.832;8.296;2024-01-30T08:22:39;19.13;;;16.98;;
13985;SDS011;7067;51.832;8.296;2024-01-30T08:25:05;19.63;;;16.83;;
13985;SDS011;7067;51.832;8.296;2024-01-30T08:27:31;17.85;;;15.55;;
13985;SDS011;7067;51.832;8.296;2024-01-30T08:29:57;21.33;;;16.45;;
13985;SDS011;7067;51.832;8.296;2024-01-30T08:32:22;20.05;;;17.33;;
13985;SDS011;7067;51.832;8.296;2024-01-30T08:34:48;19.45;;;17.02;;
13985;SDS011;7067;51.832;8.296;2024-01-30T08:37:14;18.55;;;16.73;;
13985;SDS011;7067;51.832;8.296;2024-01-30T08:39:41;19.48;;;17.20;;
13985;SDS011;7067;51.832;8.296;2024-01-30T08:42:07;20.25;;;17.75;;
13985;SDS011;7067;51.832;8.296;2024-01-30T08:44:33;18.65;;;16.58;;
13985;SDS011;7067;51.832;8.296;2024-01-30T08:46:58;19.38;;;17.25;;
13985;SDS011;7067;51.832;8.296;2024-01-30T08:49:23;20.15;;;17.02;;
13985;SDS011;7067;51.832;8.296;2024-01-30T08:51:49;19.88;;;16.90;;
13985;SDS011;7067;51.832;8.296;2024-01-30T08:54:15;18.13;;;16.20;;
13985;SDS011;7067;51.832;8.296;2024-01-30T08:56:40;16.80;;;15.18;;
13985;SDS011;7067;51.832;8.296;2024-01-30T08:59:06;17.55;;;15.77;;
13985;SDS011;7067;51.832;8.296;2024-01-30T09:01:31;17.42;;;15.23;;
13985;SDS011;7067;51.832;8.296;2024-01-30T09:03:57;15.57;;;14.13;;
13985;SDS011;7067;51.832;8.296;2024-01-30T09:06:22;16.38;;;14.30;;
13985;SDS011;7067;51.832;8.296;2024-01-30T09:08:49;16.08;;;13.68;;
13985;SDS011;7067;51.832;8.296;2024-01-30T09:11:14;16.60;;;14.07;;
13985;SDS011;7067;51.832;8.296;2024-01-30T09:13:40;13.05;;;11.82;;
13985;SDS011;7067;51.832;8.296;2024-01-30T09:16:06;15.68;;;13.90;;
13985;SDS011;7067;51.832;8.296;2024-01-30T09:18:31;12.95;;;11.63;;
13985;SDS011;7067;51.832;8.296;2024-01-30T09:20:56;14.25;;;11.68;;
13985;SDS011;7067;51.832;8.296;2024-01-30T09:23:22;12.85;;;11.65;;
13985;SDS011;7067;51.832;8.296;2024-01-30T09:25:47;13.13;;;11.85;;
13985;SDS011;7067;51.832;8.296;2024-01-30T09:28:13;13.00;;;11.65;;
13985;SDS011;7067;51.832;8.296;2024-01-30T09:30:39;12.60;;;11.30;;
13985;SDS011;7067;51.832;8.296;2024-01-30T09:33:04;14.55;;;11.48;;
13985;SDS011;7067;51.832;8.296;2024-01-30T09:35:30;13.55;;;11.52;;
13985;SDS011;7067;51.832;8.296;2024-01-30T09:37:55;15.68;;;12.35;;
13985;SDS011;7067;51.832;8.296;2024-01-30T09:40:22;11.93;;;9.95;;
13985;SDS011;7067;51.832;8.296;2024-01-30T09:42:47;12.52;;;9.48;;
13985;SDS011;7067;51.832;8.296;2024-01-30T09:45:15;11.38;;;10.18;;
13985;SDS011;7067;51.832;8.296;2024-01-30T09:47:43;13.60;;;9.75;;
13985;SDS011;7067;51.832;8.296;2024-01-30T09:50:12;11.48;;;8.68;;
13985;SDS011;7067;51.832;8.296;2024-01-30T09:52:39;10.32;;;9.13;;
13985;SDS011;7067;51.832;8.296;2024-01-30T09:55:05;15.38;;;9.65;;
13985;SDS011;7067;51.832;8.296;2024-01-30T09:57:31;10.32;;;9.32;;
13985;SDS011;7067;51.832;8.296;2024-01-30T09:59:57;11.38;;;10.25;;
13985;SDS011;7067;51.832;8.296;2024-01-30T10:02:23;11.55;;;10.02;;
13985;SDS011;7067;51.832;8.296;2024-01-30T10:04:48;11.80;;;10.57;;
13985;SDS011;7067;51.832;8.296;2024-01-30T10:07:14;12.30;;;10.32;;
13985;SDS011;7067;51.832;8.296;2024-01-30T10:09:40;12.85;;;10.70;;
13985;SDS011;7067;51.832;8.296;2024-01-30T10:12:05;17.02;;;12.52;;
13985;SDS011;7067;51.832;8.296;2024-01-30T10:14:31;12.40;;;11.20;;
13985;SDS011;7067;51.832;8.296;2024-01-30T10:16:57;11.93;;;10.45;;
13985;SDS011;7067;51.832;8.296;2024-01-30T10:19:22;11.85;;;10.55;;
13985;SDS011;7067;51.832;8.296;2024-01-30T10:21:48;13.43;;;10.07;;
13985;SDS011;7067;51.832;8.296;2024-01-30T10:24:13;12.50;;;10.15;;
13985;SDS011;7067;51.832;8.296;2024-01-30T10:26:39;12.23;;;9.43;;
13985;SDS011;7067;51.832;8.296;2024-01-30T10:29:04;14.00;;;10.75;;
13985;SDS011;7067;51.832;8.296;2024-01-30T10:31:30;10.75;;;9.63;;
13985;SDS011;7067;51.832;8.296;2024-01-30T10:33:56;10.63;;;9.63;;
13985;SDS011;7067;51.832;8.296;2024-01-30T10:36:23;12.43;;;9.57;;
13985;SDS011;7067;51.832;8.296;2024-01-30T10:38:53;10.90;;;9.80;;
13985;SDS011;7067;51.832;8.296;2024-01-30T10:41:23;11.18;;;9.98;;
13985;SDS011;7067;51.832;8.296;2024-01-30T10:44:03;9.55;;;8.65;;
13985;SDS011;7067;51.832;8.296;2024-01-30T10:46:35;10.52;;;8.88;;
13985;SDS011;7067;51.832;8.296;2024-01-30T10:49:00;10.27;;;9.15;;
13985;SDS011;7067;51.832;8.296;2024-01-30T10:51:27;11.27;;;8.52;;
13985;SDS011;7067;51.832;8.296;2024-01-30T10:53:52;13.10;;;8.93;;
13985;SDS011;7067;51.832;8.296;2024-01-30T10:56:20;9.25;;;8.38;;
13985;SDS011;7067;51.832;8.296;2024-01-30T10:58:47;9.57;;;8.25;;
13985;SDS011;7067;51.832;8.296;2024-01-30T11:01:22;12.07;;;8.65;;
13985;SDS011;7067;51.832;8.296;2024-01-30T11:03:49;10.13;;;8.20;;
13985;SDS011;7067;51.832;8.296;2024-01-30T11:06:15;9.05;;;8.25;;
13985;SDS011;7067;51.832;8.296;2024-01-30T11:08:43;10.45;;;8.63;;
13985;SDS011;7067;51.832;8.296;2024-01-30T11:11:09;9.57;;;8.57;;
13985;SDS011;7067;51.832;8.296;2024-01-30T11:13:35;9.30;;;8.48;;
13985;SDS011;7067;51.832;8.296;2024-01-30T11:16:02;10.57;;;9.40;;
13985;SDS011;7067;51.832;8.296;2024-01-30T11:18:30;8.75;;;7.88;;
13985;SDS011;7067;51.832;8.296;2024-01-30T11:20:57;10.02;;;9.02;;
13985;SDS011;7067;51.832;8.296;2024-01-30T11:23:23;9.27;;;8.38;;
13985;SDS011;7067;51.832;8.296;2024-01-30T11:25:48;9.00;;;8.20;;
13985;SDS011;7067;51.832;8.296;2024-01-30T11:28:14;9.43;;;8.48;;
13985;SDS011;7067;51.832;8.296;2024-01-30T11:30:41;9.57;;;8.23;;
13985;SDS011;7067;51.832;8.296;2024-01-30T11:35:32;9.55;;;8.65;;
13985;SDS011;7067;51.832;8.296;2024-01-30T11:38:00;8.85;;;8.02;;
13985;SDS011;7067;51.832;8.296;2024-01-30T11:40:30;10.90;;;8.80;;
13985;SDS011;7067;51.832;8.296;2024-01-30T11:42:56;8.82;;;7.93;;
13985;SDS011;7067;51.832;8.296;2024-01-30T11:45:23;9.18;;;8.25;;
13985;SDS011;7067;51.832;8.296;2024-01-30T11:47:48;9.43;;;8.43;;
13985;SDS011;7067;51.832;8.296;2024-01-30T11:50:14;9.15;;;8.35;;
13985;SDS011;7067;51.832;8.296;2024-01-30T11:52:40;9.05;;;8.15;;
13985;SDS011;7067;51.832;8.296;2024-01-30T11:55:05;9.00;;;8.10;;
13985;SDS011;7067;51.832;8.296;2024-01-30T11:57:31;8.63;;;7.82;;
13985;SDS011;7067;51.832;8.296;2024-01-30T11:59:56;8.07;;;7.43;;
13985;SDS011;7067;51.832;8.296;2024-01-30T12:02:22;8.13;;;7.32;;
13985;SDS011;7067;51.832;8.296;2024-01-30T12:04:47;7.85;;;7.10;;
13985;SDS011;7067;51.832;8.296;2024-01-30T12:07:13;9.35;;;7.60;;
13985;SDS011;7067;51.832;8.296;2024-01-30T12:09:41;9.98;;;8.10;;
13985;SDS011;7067;51.832;8.296;2024-01-30T12:12:07;8.90;;;7.78;;
13985;SDS011;7067;51.832;8.296;2024-01-30T12:14:36;7.57;;;6.85;;
13985;SDS011;7067;51.832;8.296;2024-01-30T12:17:03;8.88;;;7.45;;
13985;SDS011;7067;51.832;8.296;2024-01-30T12:19:28;10.10;;;6.97;;
13985;SDS011;7067;51.832;8.296;2024-01-30T12:21:56;8.73;;;6.47;;
13985;SDS011;7067;51.832;8.296;2024-01-30T12:26:49;7.18;;;6.47;;
13985;SDS011;7067;51.832;8.296;2024-01-30T12:29:15;11.35;;;6.53;;
13985;SDS011;7067;51.832;8.296;2024-01-30T12:31:41;7.70;;;7.03;;
13985;SDS011;7067;51.832;8.296;2024-01-30T12:34:07;8.35;;;6.35;;
13985;SDS011;7067;51.832;8.296;2024-01-30T12:36:33;7.03;;;6.20;;
13985;SDS011;7067;51.832;8.296;2024-01-30T12:39:00;8.02;;;7.18;;
13985;SDS011;7067;51.832;8.296;2024-01-30T12:41:26;11.82;;;7.38;;
13985;SDS011;7067;51.832;8.296;2024-01-30T12:43:53;9.40;;;7.15;;
13985;SDS011;7067;51.832;8.296;2024-01-30T12:46:19;8.45;;;7.43;;
13985;SDS011;7067;51.832;8.296;2024-01-30T12:48:44;8.18;;;6.53;;
13985;SDS011;7067;51.832;8.296;2024-01-30T12:51:10;8.90;;;6.32;;
13985;SDS011;7067;51.832;8.296;2024-01-30T12:53:35;9.15;;;5.60;;
13985;SDS011;7067;51.832;8.296;2024-01-30T12:56:00;8.45;;;6.70;;
13985;SDS011;7067;51.832;8.296;2024-01-30T12:58:26;7.28;;;6.32;;
13985;SDS011;7067;51.832;8.296;2024-01-30T13:00:51;7.65;;;6.13;;
13985;SDS011;7067;51.832;8.296;2024-01-30T13:03:18;8.02;;;6.28;;
13985;SDS011;7067;51.832;8.296;2024-01-30T13:05:43;12.98;;;6.65;;
13985;SDS011;7067;51.832;8.296;2024-01-30T13:08:08;13.65;;;7.07;;
13985;SDS011;7067;51.832;8.296;2024-01-30T13:10:34;9.95;;;6.85;;
13985;SDS011;7067;51.832;8.296;2024-01-30T13:12:59;7.25;;;6.15;;
13985;SDS011;7067;51.832;8.296;2024-01-30T13:15:24;9.98;;;6.18;;
13985;SDS011;7067;51.832;8.296;2024-01-30T13:17:50;10.02;;;5.95;;
13985;SDS011;7067;51.832;8.296;2024-01-30T13:20:15;10.43;;;5.95;;
13985;SDS011;7067;51.832;8.296;2024-01-30T13:22:44;10.65;;;6.05;;
13985;SDS011;7067;51.832;8.296;2024-01-30T13:25:10;7.70;;;6.50;;
13985;SDS011;7067;51.832;8.296;2024-01-30T13:27:36;10.15;;;6.65;;
13985;SDS011;7067;51.832;8.296;2024-01-30T13:30:02;8.25;;;6.53;;
13985;SDS011;7067;51.832;8.296;2024-01-30T13:32:28;12.00;;;7.00;;
13985;SDS011;7067;51.832;8.296;2024-01-30T13:34:54;10.68;;;6.40;;
13985;SDS011;7067;51.832;8.296;2024-01-30T13:37:19;13.13;;;7.22;;
13985;SDS011;7067;51.832;8.296;2024-01-30T13:39:45;10.93;;;7.60;;
13985;SDS011;7067;51.832;8.296;2024-01-30T13:42:10;15.57;;;7.90;;
13985;SDS011;7067;51.832;8.296;2024-01-30T13:44:36;10.32;;;7.45;;
13985;SDS011;7067;51.832;8.296;2024-01-30T13:47:01;13.23;;;7.25;;
13985;SDS011;7067;51.832;8.296;2024-01-30T13:49:27;13.60;;;7.47;;
13985;SDS011;7067;51.832;8.296;2024-01-30T13:51:52;10.68;;;7.68;;
13985;SDS011;7067;51.832;8.296;2024-01-30T13:54:17;13.95;;;8.07;;
13985;SDS011;7067;51.832;8.296;2024-01-30T13:56:43;16.55;;;7.80;;
13985;SDS011;7067;51.832;8.296;2024-01-30T13:59:08;16.98;;;8.23;;
13985;SDS011;7067;51.832;8.296;2024-01-30T14:01:33;19.02;;;9.23;;
13985;SDS011;7067;51.832;8.296;2024-01-30T14:03:59;14.02;;;8.02;;
13985;SDS011;7067;51.832;8.296;2024-01-30T14:06:24;11.30;;;7.10;;
13985;SDS011;7067;51.832;8.296;2024-01-30T14:08:50;16.17;;;8.02;;
13985;SDS011;7067;51.832;8.296;2024-01-30T14:11:15;13.05;;;7.03;;
13985;SDS011;7067;51.832;8.296;2024-01-30T14:13:40;8.07;;;6.80;;
13985;SDS011;7067;51.832;8.296;2024-01-30T14:16:06;10.57;;;7.18;;
13985;SDS011;7067;51.832;8.296;2024-01-30T14:18:31;10.68;;;6.68;;
13985;SDS011;7067;51.832;8.296;2024-01-30T14:20:56;11.60;;;6.68;;
13985;SDS011;7067;51.832;8.296;2024-01-30T14:23:22;11.82;;;6.22;;
13985;SDS011;7067;51.832;8.296;2024-01-30T14:25:47;10.43;;;6.85;;
13985;SDS011;7067;51.832;8.296;2024-01-30T14:28:13;11.20;;;7.43;;
13985;SDS011;7067;51.832;8.296;2024-01-30T14:30:38;11.10;;;7.72;;
13985;SDS011;7067;51.832;8.296;2024-01-30T14:33:03;15.27;;;8.40;;
13985;SDS011;7067;51.832;8.296;2024-01-30T14:35:29;12.63;;;7.45;;
13985;SDS011;7067;51.832;8.296;2024-01-30T14:37:55;13.75;;;7.53;;